createdAt,value
2023-02-12T00:01:58.405Z,-6.45
2023-02-12T00:04:28.003Z,-6.32
2023-02-12T00:06:59.057Z,-6.31
2023-02-12T00:09:28.666Z,-6.29
2023-02-12T00:11:58.210Z,-6.28
2023-02-12T00:14:27.811Z,-6.25
2023-02-12T00:16:57.261Z,-6.21
2023-02-12T00:19:26.849Z,-6.19
2023-02-12T00:21:56.341Z,-6.16
2023-02-12T00:24:28.133Z,-6.13
2023-02-12T00:26:57.650Z,-6.14
2023-02-12T00:29:27.179Z,-6.11
2023-02-12T00:31:56.788Z,-6.03
2023-02-12T00:34:26.371Z,-5.97
2023-02-12T00:36:55.793Z,-5.90
2023-02-12T00:39:26.810Z,-5.83
2023-02-12T00:41:56.313Z,-5.72
2023-02-12T00:44:25.908Z,-5.63
2023-02-12T00:46:55.532Z,-5.60
2023-02-12T00:50:36.520Z,-5.56
2023-02-12T00:53:06.349Z,-5.52
2023-02-12T00:55:36.011Z,-5.55
2023-02-12T00:58:05.670Z,-5.58
2023-02-12T01:00:35.160Z,-5.57
2023-02-12T01:03:05.829Z,-5.55
2023-02-12T01:05:37.206Z,-5.55
2023-02-12T01:08:07.239Z,-5.57
2023-02-12T01:10:36.852Z,-5.57
2023-02-12T01:13:06.252Z,-5.55
2023-02-12T01:15:35.811Z,-5.53
2023-02-12T01:18:05.482Z,-5.56
2023-02-12T01:20:36.464Z,-5.57
2023-02-12T01:23:07.183Z,-5.61
2023-02-12T01:25:36.793Z,-5.60
2023-02-12T01:28:06.774Z,-5.59
2023-02-12T01:30:36.201Z,-5.60
2023-02-12T01:33:05.841Z,-5.65
2023-02-12T01:35:38.542Z,-5.74
2023-02-12T01:38:08.217Z,-5.74
2023-02-12T01:40:38.140Z,-5.71
2023-02-12T01:43:13.914Z,-5.66
2023-02-12T01:45:55.113Z,-5.67
2023-02-12T01:48:29.422Z,-5.72
2023-02-12T01:51:02.713Z,-5.76
2023-02-12T01:53:36.633Z,-5.79
2023-02-12T01:56:07.000Z,-5.89
2023-02-12T01:58:43.255Z,-5.94
2023-02-12T02:01:18.774Z,-5.97
2023-02-12T02:03:51.754Z,-6.00
2023-02-12T02:06:27.875Z,-6.10
2023-02-12T02:08:58.157Z,-6.12
2023-02-12T02:11:45.117Z,-6.15
2023-02-12T02:14:31.967Z,-6.13
2023-02-12T02:17:20.988Z,-6.10
2023-02-12T02:20:44.433Z,-6.14
2023-02-12T02:24:02.593Z,-6.15
2023-02-12T02:27:17.327Z,-6.16
2023-02-12T02:30:21.127Z,-6.15
2023-02-12T02:33:06.093Z,-6.22
2023-02-12T02:35:45.458Z,-6.21
2023-02-12T02:38:26.249Z,-6.21
2023-02-12T02:41:06.650Z,-6.24
2023-02-12T02:43:42.727Z,-6.20
2023-02-12T02:46:19.617Z,-6.16
2023-02-12T02:48:55.334Z,-6.15
2023-02-12T02:51:31.100Z,-6.14
2023-02-12T02:54:09.459Z,-6.11
2023-02-12T02:56:47.064Z,-6.10
2023-02-12T02:59:25.120Z,-6.12
2023-02-12T03:02:04.920Z,-6.10
2023-02-12T03:04:39.968Z,-6.08
2023-02-12T03:07:15.426Z,-6.06
2023-02-12T03:09:50.976Z,-6.02
2023-02-12T03:12:27.587Z,-5.96
2023-02-12T03:15:05.335Z,-5.96
2023-02-12T03:17:42.630Z,-5.95
2023-02-12T03:20:19.337Z,-5.94
2023-02-12T03:22:54.998Z,-5.91
2023-02-12T03:25:30.265Z,-5.90
2023-02-12T03:28:06.654Z,-5.87
2023-02-12T03:30:45.817Z,-5.83
2023-02-12T03:33:30.617Z,-5.72
2023-02-12T03:36:12.413Z,-5.67
2023-02-12T03:38:47.563Z,-5.71
2023-02-12T03:41:26.491Z,-5.69
2023-02-12T03:44:01.282Z,-5.71
2023-02-12T03:46:39.090Z,-5.73
2023-02-12T03:51:41.400Z,-5.67
2023-02-12T03:54:16.541Z,-5.67
2023-02-12T03:56:52.708Z,-5.63
2023-02-12T03:59:23.764Z,-5.55
2023-02-12T04:01:56.562Z,-5.47
2023-02-12T04:04:26.828Z,-5.47
2023-02-12T04:06:58.510Z,-5.49
2023-02-12T04:09:30.320Z,-5.50
2023-02-12T04:12:17.366Z,-5.49
2023-02-12T04:14:54.745Z,-5.45
2023-02-12T04:17:36.687Z,-5.39
2023-02-12T04:20:16.648Z,-5.37
2023-02-12T04:22:57.746Z,-5.38
2023-02-12T04:25:46.826Z,-5.37
2023-02-12T04:28:30.232Z,-5.37
2023-02-12T04:31:07.100Z,-5.39
2023-02-12T04:33:45.090Z,-5.34
2023-02-12T04:36:20.373Z,-5.30
2023-02-12T04:38:57.282Z,-5.32
2023-02-12T04:41:28.485Z,-5.36
2023-02-12T04:43:57.876Z,-5.35
2023-02-12T04:46:27.419Z,-5.31
2023-02-12T04:48:59.668Z,-5.28
2023-02-12T04:51:29.154Z,-5.26
2023-02-12T04:54:00.129Z,-5.25
2023-02-12T04:56:29.757Z,-5.24
2023-02-12T04:58:59.352Z,-5.22
2023-02-12T05:01:31.262Z,-5.19
2023-02-12T05:04:01.122Z,-5.20
2023-02-12T05:06:31.772Z,-5.21
2023-02-12T05:09:02.875Z,-5.21
2023-02-12T05:11:32.441Z,-5.22
2023-02-12T05:14:02.139Z,-5.21
2023-02-12T05:16:31.650Z,-5.21
2023-02-12T05:19:01.176Z,-5.22
2023-02-12T05:21:33.081Z,-5.12
2023-02-12T05:24:05.831Z,-5.08
2023-02-12T05:26:35.937Z,-5.06
2023-02-12T05:29:05.997Z,-5.03
2023-02-12T05:31:36.061Z,-5.00
2023-02-12T05:34:05.721Z,-4.96
2023-02-12T05:36:35.183Z,-4.82
2023-02-12T05:39:07.443Z,-4.84
2023-02-12T05:41:37.339Z,-4.90
2023-02-12T05:44:08.489Z,-4.91
2023-02-12T05:46:37.986Z,-4.88
2023-02-12T05:49:07.714Z,-4.86
2023-02-12T05:51:37.692Z,-4.82
2023-02-12T05:54:10.196Z,-4.79
2023-02-12T05:56:45.706Z,-4.76
2023-02-12T05:59:19.065Z,-4.77
2023-02-12T06:01:50.639Z,-4.75
2023-02-12T06:04:23.938Z,-4.66
2023-02-12T06:06:54.552Z,-4.58
2023-02-12T06:09:25.988Z,-4.56
2023-02-12T06:11:55.386Z,-4.52
2023-02-12T06:14:25.012Z,-4.48
2023-02-12T06:16:54.678Z,-4.46
2023-02-12T06:19:24.697Z,-4.42
2023-02-12T06:21:54.586Z,-4.38
2023-02-12T06:24:26.215Z,-4.34
2023-02-12T06:26:55.586Z,-4.27
2023-02-12T06:29:26.530Z,-4.23
2023-02-12T06:31:56.078Z,-4.13
2023-02-12T06:34:25.669Z,-3.98
2023-02-12T06:36:55.087Z,-3.89
2023-02-12T06:39:26.249Z,-3.81
2023-02-12T06:41:55.757Z,-3.80
2023-02-12T06:44:25.451Z,-3.73
2023-02-12T06:46:54.822Z,-3.66
2023-02-12T06:51:38.505Z,-3.49
2023-02-12T06:54:12.387Z,-3.41
2023-02-12T06:56:42.185Z,-3.36
2023-02-12T06:59:17.046Z,-3.28
2023-02-12T07:01:47.164Z,-3.22
2023-02-12T07:04:17.096Z,-3.12
2023-02-12T07:06:48.755Z,-2.98
2023-02-12T07:09:18.200Z,-2.84
2023-02-12T07:11:48.133Z,-2.70
2023-02-12T07:14:18.618Z,-2.58
2023-02-12T07:16:48.437Z,-2.39
2023-02-12T07:19:18.453Z,-2.20
2023-02-12T07:21:49.902Z,-2.05
2023-02-12T07:24:19.553Z,-1.94
2023-02-12T07:26:49.153Z,-1.82
2023-02-12T07:29:18.901Z,-1.71
2023-02-12T07:31:48.589Z,-1.63
2023-02-12T07:34:18.271Z,-1.57
2023-02-12T07:36:49.314Z,-1.57
2023-02-12T07:39:19.038Z,-1.47
2023-02-12T07:41:48.587Z,-1.41
2023-02-12T07:44:18.111Z,-1.37
2023-02-12T07:46:49.672Z,-1.35
2023-02-12T07:49:23.095Z,-1.28
2023-02-12T07:51:55.791Z,-1.24
2023-02-12T07:54:25.400Z,-1.22
2023-02-12T07:56:54.854Z,-1.20
2023-02-12T07:59:24.393Z,-1.15
2023-02-12T08:01:55.199Z,-1.09
2023-02-12T08:04:27.143Z,-0.98
2023-02-12T08:06:59.261Z,-0.84
2023-02-12T08:09:31.059Z,-0.69
2023-02-12T08:12:00.673Z,-0.57
2023-02-12T08:14:30.578Z,-0.47
2023-02-12T08:17:00.181Z,-0.41
2023-02-12T08:19:29.662Z,-0.35
2023-02-12T08:22:02.572Z,-0.26
2023-02-12T08:24:32.189Z,-0.16
2023-02-12T08:27:01.715Z,-0.06
2023-02-12T08:29:32.502Z,0.05
2023-02-12T08:32:06.645Z,0.12
2023-02-12T08:34:38.000Z,0.21
2023-02-12T08:37:09.386Z,0.34
2023-02-12T08:39:39.022Z,0.52
2023-02-12T08:42:08.609Z,0.69
2023-02-12T08:44:38.489Z,0.88
2023-02-12T08:47:08.380Z,1.02
2023-02-12T08:49:38.629Z,1.12
2023-02-12T08:52:09.467Z,1.18
2023-02-12T08:54:39.155Z,1.18
2023-02-12T08:57:08.656Z,1.16
2023-02-12T08:59:38.180Z,1.22
2023-02-12T09:02:09.037Z,1.33
2023-02-12T09:04:38.747Z,1.49
2023-02-12T09:07:10.936Z,1.65
2023-02-12T09:09:40.750Z,1.87
2023-02-12T09:12:10.689Z,1.93
2023-02-12T09:14:40.860Z,1.91
2023-02-12T09:17:10.324Z,1.81
2023-02-12T09:19:39.900Z,1.67
2023-02-12T09:22:10.937Z,1.58
2023-02-12T09:24:40.727Z,1.52
2023-02-12T09:27:10.234Z,1.49
2023-02-12T09:29:39.866Z,1.50
2023-02-12T09:32:10.021Z,1.60
2023-02-12T09:34:39.736Z,1.66
2023-02-12T09:37:12.127Z,1.73
2023-02-12T09:39:41.756Z,1.83
2023-02-12T09:42:46.344Z,2.13
2023-02-12T09:45:23.464Z,2.33
2023-02-12T09:51:38.010Z,2.66
2023-02-12T09:54:15.927Z,2.78
2023-02-12T09:56:50.626Z,2.97
2023-02-12T09:59:39.154Z,3.11
2023-02-12T10:02:15.506Z,3.18
2023-02-12T10:05:00.238Z,3.19
2023-02-12T10:08:08.579Z,3.27
2023-02-12T10:10:53.712Z,3.28
2023-02-12T10:13:41.048Z,3.37
2023-02-12T10:16:23.482Z,3.43
2023-02-12T10:19:14.635Z,3.38
2023-02-12T10:21:58.598Z,3.37
2023-02-12T10:24:54.998Z,3.38
2023-02-12T10:27:39.620Z,3.51
2023-02-12T10:30:20.996Z,3.59
2023-02-12T10:32:57.062Z,3.64
2023-02-12T10:35:27.505Z,3.66
2023-02-12T10:38:02.474Z,3.76
2023-02-12T10:40:38.608Z,3.79
2023-02-12T10:43:10.339Z,3.74
2023-02-12T10:45:43.132Z,3.67
2023-02-12T10:48:20.734Z,3.65
2023-02-12T10:51:07.818Z,3.63
2023-02-12T10:53:39.936Z,3.63
2023-02-12T10:56:18.667Z,3.60
2023-02-12T10:58:59.629Z,3.58
2023-02-12T11:01:32.677Z,3.55
2023-02-12T11:04:21.240Z,3.52
2023-02-12T11:07:01.934Z,3.57
2023-02-12T11:09:36.592Z,3.67
2023-02-12T11:12:21.657Z,3.87
2023-02-12T11:14:53.455Z,3.92
2023-02-12T11:17:30.010Z,3.90
2023-02-12T11:20:23.255Z,4.04
2023-02-12T11:22:54.647Z,4.22
2023-02-12T11:25:26.776Z,4.32
2023-02-12T11:28:16.550Z,4.42
2023-02-12T11:30:56.259Z,4.49
2023-02-12T11:33:33.767Z,4.58
2023-02-12T11:36:12.945Z,4.74
2023-02-12T11:38:54.628Z,4.92
2023-02-12T11:41:34.732Z,4.95
2023-02-12T11:44:13.657Z,4.83
2023-02-12T11:46:51.061Z,4.59
2023-02-12T11:49:25.019Z,4.47
2023-02-12T11:51:55.770Z,4.34
2023-02-12T11:54:28.890Z,4.26
2023-02-12T11:56:58.670Z,4.20
2023-02-12T11:59:37.051Z,4.16
2023-02-12T12:02:27.785Z,4.06
2023-02-12T12:05:04.982Z,3.99
2023-02-12T12:07:40.697Z,3.91
2023-02-12T12:10:19.817Z,3.83
2023-02-12T12:12:54.790Z,3.70
2023-02-12T12:15:47.388Z,3.62
2023-02-12T12:18:53.087Z,3.55
2023-02-12T12:21:32.635Z,3.42
2023-02-12T12:24:06.010Z,3.35
2023-02-12T12:26:36.977Z,3.40
2023-02-12T12:29:14.828Z,3.39
2023-02-12T12:31:48.886Z,3.34
2023-02-12T12:34:21.629Z,3.32
2023-02-12T12:37:24.092Z,3.33
2023-02-12T12:40:33.409Z,3.31
2023-02-12T12:43:13.095Z,3.27
2023-02-12T12:46:31.276Z,3.20
2023-02-12T12:52:05.293Z,3.24
2023-02-12T12:54:57.679Z,3.25
2023-02-12T12:57:42.688Z,3.19
2023-02-12T13:00:33.752Z,3.18
2023-02-12T13:03:34.294Z,3.26
2023-02-12T13:06:50.919Z,3.32
2023-02-12T13:09:43.730Z,3.31
2023-02-12T13:12:43.448Z,3.36
2023-02-12T13:15:25.123Z,3.48
2023-02-12T13:18:04.416Z,3.53
2023-02-12T13:20:44.977Z,3.60
2023-02-12T13:23:21.812Z,3.58
2023-02-12T13:26:03.860Z,3.52
2023-02-12T13:28:38.390Z,3.36
2023-02-12T13:34:11.419Z,3.03
2023-02-12T13:36:41.650Z,2.90
2023-02-12T13:39:25.616Z,2.83
2023-02-12T13:42:11.220Z,2.80
2023-02-12T13:44:53.537Z,2.75
2023-02-12T13:47:36.252Z,2.67
2023-02-12T13:50:29.439Z,2.64
2023-02-12T13:53:07.906Z,2.59
2023-02-12T13:55:50.973Z,2.54
2023-02-12T13:58:42.265Z,2.54
2023-02-12T14:01:14.805Z,2.53
2023-02-12T14:03:44.374Z,2.53
2023-02-12T14:06:17.331Z,2.49
2023-02-12T14:08:50.517Z,2.50
2023-02-12T14:11:25.445Z,2.53
2023-02-12T14:13:59.242Z,2.60
2023-02-12T14:16:42.704Z,2.58
2023-02-12T14:19:59.188Z,2.59
2023-02-12T14:23:28.107Z,2.58
2023-02-12T14:26:07.548Z,2.45
2023-02-12T14:28:51.920Z,2.36
2023-02-12T14:31:35.511Z,2.30
2023-02-12T14:34:52.051Z,2.27
2023-02-12T14:37:38.520Z,2.24
2023-02-12T14:40:50.947Z,2.23
2023-02-12T14:43:31.931Z,2.23
2023-02-12T14:46:45.016Z,2.22
2023-02-12T14:49:25.147Z,2.26
2023-02-12T14:52:00.119Z,2.26
2023-02-12T14:54:34.599Z,2.26
2023-02-12T14:57:08.922Z,2.25
2023-02-12T14:59:45.211Z,2.21
2023-02-12T15:02:29.733Z,2.18
2023-02-12T15:05:04.420Z,2.13
2023-02-12T15:07:42.102Z,2.11
2023-02-12T15:10:18.874Z,2.07
2023-02-12T15:12:55.626Z,2.03
2023-02-12T15:15:33.875Z,2.03
2023-02-12T15:18:16.678Z,2.00
2023-02-12T15:20:52.874Z,2.00
2023-02-12T15:23:38.275Z,1.98
2023-02-12T15:26:14.474Z,1.93
2023-02-12T15:28:45.170Z,1.92
2023-02-12T15:31:19.701Z,1.90
2023-02-12T15:33:54.099Z,1.86
2023-02-12T15:36:26.805Z,1.82
2023-02-12T15:38:58.967Z,1.81
2023-02-12T15:41:39.038Z,1.76
2023-02-12T15:44:28.849Z,1.75
2023-02-12T15:47:13.772Z,1.71
2023-02-12T15:51:42.032Z,1.63
2023-02-12T15:54:12.754Z,1.61
2023-02-12T15:56:44.129Z,1.59
2023-02-12T15:59:23.892Z,1.56
2023-02-12T16:01:59.263Z,1.52
2023-02-12T16:04:33.547Z,1.48
2023-02-12T16:07:04.810Z,1.45
2023-02-12T16:09:37.369Z,1.44
2023-02-12T16:12:12.600Z,1.44
2023-02-12T16:14:46.670Z,1.44
2023-02-12T16:17:28.690Z,1.39
2023-02-12T16:20:01.230Z,1.37
2023-02-12T16:22:37.937Z,1.37
2023-02-12T16:25:19.087Z,1.35
2023-02-12T16:27:59.816Z,1.30
2023-02-12T16:30:32.788Z,1.30
2023-02-12T16:33:03.449Z,1.29
2023-02-12T16:35:35.686Z,1.27
2023-02-12T16:38:52.093Z,1.26
2023-02-12T16:41:27.653Z,1.19
2023-02-12T16:44:31.674Z,1.17
2023-02-12T16:47:03.049Z,1.19
2023-02-12T16:49:32.752Z,1.19
2023-02-12T16:52:30.189Z,1.14
2023-02-12T16:55:01.289Z,1.13
2023-02-12T16:57:32.295Z,1.12
2023-02-12T17:00:01.950Z,1.13
2023-02-12T17:02:31.532Z,1.13
2023-02-12T17:05:02.009Z,1.12
2023-02-12T17:07:31.440Z,1.11
2023-02-12T17:10:03.175Z,1.10
2023-02-12T17:12:32.642Z,1.08
2023-02-12T17:15:06.675Z,1.07
2023-02-12T17:17:36.318Z,1.07
2023-02-12T17:20:06.380Z,1.06
2023-02-12T17:22:36.754Z,1.07
2023-02-12T17:25:08.373Z,1.07
2023-02-12T17:27:38.268Z,1.07
2023-02-12T17:30:09.868Z,1.04
2023-02-12T17:32:39.592Z,1.03
2023-02-12T17:35:10.240Z,0.99
2023-02-12T17:37:40.074Z,0.95
2023-02-12T17:40:13.173Z,0.97
2023-02-12T17:42:42.727Z,0.94
2023-02-12T17:45:12.824Z,0.93
2023-02-12T17:47:42.472Z,0.93
2023-02-12T17:50:14.838Z,0.91
2023-02-12T17:52:44.451Z,0.90
2023-02-12T17:55:17.679Z,0.89
2023-02-12T17:57:47.233Z,0.89
2023-02-12T18:00:18.874Z,0.88
2023-02-12T18:02:48.511Z,0.87
2023-02-12T18:05:18.331Z,0.87
2023-02-12T18:07:48.094Z,0.88
2023-02-12T18:10:19.340Z,0.87
2023-02-12T18:12:48.733Z,0.85
2023-02-12T18:15:21.266Z,0.84
2023-02-12T18:17:51.016Z,0.84
2023-02-12T18:20:21.366Z,0.82
2023-02-12T18:22:51.293Z,0.79
2023-02-12T18:25:22.253Z,0.77
2023-02-12T18:27:52.010Z,0.72
2023-02-12T18:30:22.001Z,0.70
2023-02-12T18:32:51.336Z,0.71
2023-02-12T18:35:20.959Z,0.69
2023-02-12T18:37:50.493Z,0.65
2023-02-12T18:40:21.661Z,0.65
2023-02-12T18:42:51.288Z,0.62
2023-02-12T18:45:21.917Z,0.62
2023-02-12T18:47:51.432Z,0.62
2023-02-12T18:51:40.153Z,0.58
2023-02-12T18:54:12.865Z,0.56
2023-02-12T18:56:45.291Z,0.55
2023-02-12T18:59:16.993Z,0.50
2023-02-12T19:01:48.030Z,0.47
2023-02-12T19:04:18.958Z,0.45
2023-02-12T19:06:52.856Z,0.45
2023-02-12T19:09:25.657Z,0.46
2023-02-12T19:12:00.725Z,0.46
2023-02-12T19:14:30.907Z,0.44
2023-02-12T19:17:00.413Z,0.40
2023-02-12T19:19:30.600Z,0.35
2023-02-12T19:22:01.568Z,0.33
2023-02-12T19:24:45.516Z,0.30
2023-02-12T19:27:15.708Z,0.30
2023-02-12T19:29:45.553Z,0.32
2023-02-12T19:32:15.174Z,0.29
2023-02-12T19:34:46.209Z,0.28
2023-02-12T19:37:17.369Z,0.28
2023-02-12T19:39:47.016Z,0.25
2023-02-12T19:42:17.949Z,0.12
2023-02-12T19:44:47.909Z,-0.06
2023-02-12T19:47:18.110Z,-0.18
2023-02-12T19:49:47.611Z,-0.27
2023-02-12T19:52:18.564Z,-0.36
2023-02-12T19:54:48.132Z,-0.43
2023-02-12T19:57:17.629Z,-0.58
2023-02-12T19:59:47.656Z,-0.73
2023-02-12T20:02:17.133Z,-0.93
2023-02-12T20:04:47.579Z,-1.06
2023-02-12T20:07:18.497Z,-1.18
2023-02-12T20:09:47.983Z,-1.24
2023-02-12T20:12:17.498Z,-1.36
2023-02-12T20:14:47.352Z,-1.55
2023-02-12T20:17:18.777Z,-1.65
2023-02-12T20:19:48.229Z,-1.73
2023-02-12T20:22:19.238Z,-1.79
2023-02-12T20:24:48.932Z,-1.83
2023-02-12T20:27:18.397Z,-1.86
2023-02-12T20:29:47.856Z,-2.01
2023-02-12T20:32:17.419Z,-2.11
2023-02-12T20:34:51.087Z,-2.20
2023-02-12T20:37:22.224Z,-2.21
2023-02-12T20:39:51.657Z,-2.20
2023-02-12T20:42:25.216Z,-2.22
2023-02-12T20:44:54.843Z,-2.15
2023-02-12T20:47:29.121Z,-2.13
2023-02-12T20:49:59.443Z,-2.13
2023-02-12T20:52:30.500Z,-2.18
2023-02-12T20:55:00.032Z,-2.28
2023-02-12T20:57:31.636Z,-2.39
2023-02-12T21:00:01.145Z,-2.49
2023-02-12T21:02:31.029Z,-2.56
2023-02-12T21:05:00.923Z,-2.48
2023-02-12T21:07:32.107Z,-2.43
2023-02-12T21:10:01.652Z,-2.42
2023-02-12T21:12:31.244Z,-2.42
2023-02-12T21:15:00.889Z,-2.44
2023-02-12T21:17:30.544Z,-2.40
2023-02-12T21:20:01.072Z,-2.39
2023-02-12T21:22:32.205Z,-2.40
2023-02-12T21:25:01.771Z,-2.36
2023-02-12T21:27:31.690Z,-2.29
2023-02-12T21:30:01.593Z,-2.24
2023-02-12T21:32:31.353Z,-2.22
2023-02-12T21:35:00.963Z,-2.19
2023-02-12T21:37:32.288Z,-2.27
2023-02-12T21:40:02.025Z,-2.25
2023-02-12T21:42:31.562Z,-2.22
2023-02-12T21:45:01.161Z,-2.17
2023-02-12T21:47:31.367Z,-2.11
2023-02-12T21:51:39.578Z,-2.07
2023-02-12T21:54:12.118Z,-2.06
2023-02-12T21:56:44.187Z,-2.05
2023-02-12T21:59:15.299Z,-2.00
2023-02-12T22:01:47.499Z,-2.03
2023-02-12T22:04:17.766Z,-2.00
2023-02-12T22:06:52.840Z,-1.95
2023-02-12T22:09:24.356Z,-1.92
2023-02-12T22:11:54.386Z,-1.87
2023-02-12T22:14:26.417Z,-1.86
2023-02-12T22:16:55.918Z,-1.85
2023-02-12T22:19:25.456Z,-1.84
2023-02-12T22:21:56.343Z,-1.81
2023-02-12T22:24:25.859Z,-1.78
2023-02-12T22:26:57.342Z,-1.76
2023-02-12T22:29:26.898Z,-1.72
2023-02-12T22:31:56.660Z,-1.71
2023-02-12T22:34:26.381Z,-1.73
2023-02-12T22:36:57.287Z,-1.72
2023-02-12T22:39:29.891Z,-1.72
2023-02-12T22:41:59.404Z,-1.70
2023-02-12T22:44:29.010Z,-1.70
2023-02-12T22:46:58.510Z,-1.71
2023-02-12T22:49:28.167Z,-1.81
2023-02-12T22:51:59.590Z,-1.92
2023-02-12T22:54:29.170Z,-1.95
2023-02-12T22:56:58.664Z,-1.91
2023-02-12T22:59:28.628Z,-1.88
2023-02-12T23:01:59.510Z,-1.88
2023-02-12T23:04:29.508Z,-1.88
2023-02-12T23:07:00.599Z,-1.87
2023-02-12T23:09:30.456Z,-1.86
2023-02-12T23:12:00.100Z,-1.84
2023-02-12T23:14:29.560Z,-1.83
2023-02-12T23:16:59.149Z,-1.82
2023-02-12T23:19:28.949Z,-1.85
2023-02-12T23:22:00.148Z,-1.90
2023-02-12T23:24:29.643Z,-1.93
2023-02-12T23:26:59.333Z,-1.94
2023-02-12T23:29:28.810Z,-1.95
2023-02-12T23:31:58.420Z,-1.97
2023-02-12T23:34:29.368Z,-1.94
2023-02-12T23:37:00.300Z,-1.96
2023-02-12T23:39:29.730Z,-1.98
2023-02-12T23:41:59.195Z,-1.97
2023-02-12T23:44:28.824Z,-1.95
2023-02-12T23:46:59.654Z,-1.95
2023-02-12T23:49:29.453Z,-1.95
2023-02-12T23:52:00.519Z,-1.98
2023-02-12T23:54:31.777Z,-1.96
2023-02-12T23:57:01.289Z,-1.94
2023-02-12T23:59:30.746Z,-1.94
